Time;durP1;ratioP1;P1;durP2;ratioP2;P2;SDS_P1;SDS_P2;PMS_P1;PMS_P2;Temp;Humidity;BMP_temperature;BMP_pressure;BME280_temperature;BME280_humidity;BME280_pressure;Samples;Min_cycle;Max_cycle;Signal;HPM_P1;HPM_P2
2023/10/16 00:02:16;;;;;;;6.70;6.10;;;;;;;4.05;76.56;98875.16;5003669;28;20039;-72
2023/10/16 00:04:45;;;;;;;5.72;5.13;;;;;;;3.95;76.58;98855.94;4977213;28;20453;-72
2023/10/16 00:07:14;;;;;;;6.53;5.85;;;;;;;3.91;76.30;98830.69;5005478;28;20517;-72
2023/10/16 00:09:43;;;;;;;6.28;5.68;;;;;;;4.00;76.21;98850.88;4991644;28;20038;-72
2023/10/16 00:12:09;;;;;;;6.43;5.57;;;;;;;4.06;75.78;98854.66;4977411;28;20022;-72
2023/10/16 00:14:35;;;;;;;6.35;5.20;;;;;;;4.07;76.42;98857.13;4990111;28;20126;-72
2023/10/16 00:17:03;;;;;;;6.95;6.25;;;;;;;4.11;76.19;98860.22;4989038;28;20022;-71
2023/10/16 00:19:33;;;;;;;6.38;5.75;;;;;;;3.99;75.86;98841.22;4996306;28;20037;-72
2023/10/16 00:22:00;;;;;;;5.75;5.15;;;;;;;4.11;76.07;98857.56;4996877;28;20366;-73
2023/10/16 00:24:25;;;;;;;5.90;5.40;;;;;;;4.02;75.58;98848.84;4996386;28;20030;-73
2023/10/16 00:26:51;;;;;;;8.02;6.30;;;;;;;3.98;75.92;98852.91;5012823;28;20096;-73
2023/10/16 00:29:17;;;;;;;8.73;7.93;;;;;;;4.00;75.67;98856.22;4994095;28;20034;-73
2023/10/16 00:31:43;;;;;;;7.50;6.57;;;;;;;3.94;76.00;98867.63;4989288;28;20030;-73
2023/10/16 00:34:09;;;;;;;7.57;6.80;;;;;;;3.81;76.40;98866.63;4979803;28;20441;-73
2023/10/16 00:36:34;;;;;;;8.23;7.40;;;;;;;3.67;77.12;98860.28;4978102;28;20638;-73
2023/10/16 00:39:12;;;;;;;8.38;6.97;;;;;;;3.79;76.92;98874.81;4979170;28;20070;-72
2023/10/16 00:41:38;;;;;;;6.13;5.63;;;;;;;3.71;77.68;98872.22;4978538;28;20089;-72
2023/10/16 00:44:04;;;;;;;5.95;5.45;;;;;;;3.73;77.41;98864.91;4973251;28;20015;-73
2023/10/16 00:46:36;;;;;;;7.28;6.60;;;;;;;3.76;76.76;98869.84;4980156;28;20042;-72
2023/10/16 00:49:04;;;;;;;6.93;6.28;;;;;;;3.57;77.01;98843.75;4980254;28;20030;-72
2023/10/16 00:51:32;;;;;;;8.02;7.22;;;;;;;3.70;76.99;98865.25;4995818;28;20040;-72
2023/10/16 00:53:59;;;;;;;6.60;6.00;;;;;;;3.48;77.36;98840.38;4996084;28;20033;-73
2023/10/16 00:56:27;;;;;;;7.68;6.35;;;;;;;3.64;77.05;98865.97;4997180;28;20597;-73
2023/10/16 00:58:55;;;;;;;7.53;6.20;;;;;;;3.64;76.88;98859.84;4976775;28;20038;-72
2023/10/16 01:01:21;;;;;;;8.15;7.22;;;;;;;3.61;77.21;98866.38;4976323;28;20031;-72
2023/10/16 01:03:48;;;;;;;5.80;5.30;;;;;;;3.60;77.17;98856.72;4976429;28;20038;-72
2023/10/16 01:06:21;;;;;;;7.38;6.47;;;;;;;3.45;77.10;98829.28;4991687;28;20029;-73
2023/10/16 01:08:51;;;;;;;6.47;5.88;;;;;;;3.62;77.06;98857.34;5003592;28;20026;-73
2023/10/16 01:11:22;;;;;;;6.15;5.32;;;;;;;3.60;77.23;98847.88;4976555;28;20104;-73
2023/10/16 01:13:48;;;;;;;6.82;5.55;;;;;;;3.55;77.18;98835.13;5013353;28;20034;-73
2023/10/16 01:16:17;;;;;;;7.53;6.82;;;;;;;3.66;76.76;98842.66;4982671;28;20050;-73
2023/10/16 01:18:44;;;;;;;9.88;5.82;;;;;;;3.64;77.07;98839.34;4986809;28;20421;-72
2023/10/16 01:21:13;;;;;;;7.97;6.68;;;;;;;3.62;77.56;98844.03;4978948;28;20512;-72
2023/10/16 01:23:40;;;;;;;6.72;6.13;;;;;;;3.63;77.14;98843.03;5012876;28;20034;-73
2023/10/16 01:26:06;;;;;;;8.75;6.28;;;;;;;3.61;77.48;98839.72;4995426;28;20026;-72
2023/10/16 01:28:32;;;;;;;5.63;5.05;;;;;;;3.52;77.55;98813.38;4984321;28;20030;-72
2023/10/16 01:31:00;;;;;;;7.05;5.40;;;;;;;3.63;77.10;98836.88;4975805;28;20025;-72
2023/10/16 01:33:25;;;;;;;8.68;5.20;;;;;;;3.58;77.45;98839.25;4993454;28;20039;-73
2023/10/16 01:35:51;;;;;;;6.43;5.75;;;;;;;3.48;77.74;98844.84;4976438;28;20364;-72
2023/10/16 01:38:18;;;;;;;7.47;5.15;;;;;;;3.42;78.01;98834.94;4993371;28;20037;-73
2023/10/16 01:41:05;;;;;;;6.75;5.85;;;;;;;3.36;77.37;98841.03;4975879;28;20445;-72
2023/10/16 01:43:32;;;;;;;7.50;6.57;;;;;;;3.29;76.94;98829.44;4991109;28;20117;-70
2023/10/16 01:46:08;;;;;;;9.50;6.60;;;;;;;3.23;76.91;98832.81;4969346;28;20032;-70
2023/10/16 01:48:37;;;;;;;8.32;6.60;;;;;;;3.16;77.06;98829.25;4965694;28;20041;-70
2023/10/16 01:51:05;;;;;;;8.43;6.47;;;;;;;3.03;77.35;98803.28;4995121;28;20037;-70
2023/10/16 01:53:36;;;;;;;8.45;6.25;;;;;;;3.23;76.79;98836.31;4999025;28;20041;-71
2023/10/16 01:56:12;;;;;;;7.70;5.65;;;;;;;3.31;77.39;98838.06;5000241;28;20514;-70
2023/10/16 01:58:39;;;;;;;8.57;6.18;;;;;;;3.30;76.70;98831.09;4968057;28;20034;-70
2023/10/16 02:01:04;;;;;;;7.18;5.72;;;;;;;3.22;77.39;98828.53;4993089;28;20085;-71
2023/10/16 02:03:30;;;;;;;6.60;5.57;;;;;;;3.23;77.14;98819.53;5009194;28;20034;-71
2023/10/16 02:05:55;;;;;;;6.63;5.82;;;;;;;3.25;77.48;98822.81;4991489;28;20041;-71
2023/10/16 02:08:21;;;;;;;6.65;5.95;;;;;;;3.29;77.31;98824.13;4995111;28;20072;-72
2023/10/16 02:10:48;;;;;;;8.55;6.97;;;;;;;3.31;78.10;98822.09;4981174;28;20069;-71
2023/10/16 02:13:14;;;;;;;7.47;6.53;;;;;;;3.38;78.02;98815.03;4982435;28;20061;-71
2023/10/16 02:15:39;;;;;;;8.07;7.18;;;;;;;3.30;78.47;98810.63;4972488;28;20027;-71
2023/10/16 02:18:06;;;;;;;8.93;6.97;;;;;;;3.17;78.12;98793.66;4992920;28;20041;-71
2023/10/16 02:20:36;;;;;;;9.18;7.38;;;;;;;3.14;78.95;98812.63;4974921;28;20046;-71
2023/10/16 02:23:07;;;;;;;8.52;6.72;;;;;;;3.22;78.56;98818.69;4983381;28;20062;-71
2023/10/16 02:25:35;;;;;;;9.30;7.93;;;;;;;3.25;78.39;98822.81;4993931;28;20100;-70
2023/10/16 02:28:00;;;;;;;9.80;8.90;;;;;;;3.20;78.42;98817.22;4968485;28;20547;-71
2023/10/16 02:32:59;;;;;;;8.00;7.20;;;;;;;2.95;78.38;98808.66;5012398;28;20389;-71
2023/10/16 02:35:24;;;;;;;9.05;6.80;;;;;;;2.91;77.71;98803.88;5007998;28;20076;-71
2023/10/16 02:37:57;;;;;;;7.25;6.55;;;;;;;2.86;78.25;98800.94;4992795;28;20113;-71
2023/10/16 02:40:25;;;;;;;7.68;6.88;;;;;;;2.94;77.33;98814.19;4991518;28;20541;-71
2023/10/16 02:43:01;;;;;;;12.23;8.10;;;;;;;2.93;77.41;98812.50;4978933;28;20014;-72
2023/10/16 02:45:27;;;;;;;8.02;7.22;;;;;;;2.76;77.41;98790.56;5007401;28;20133;-71
2023/10/16 02:47:53;;;;;;;6.97;6.28;;;;;;;2.87;77.57;98813.25;4992628;28;20113;-71
2023/10/16 02:50:20;;;;;;;8.32;6.45;;;;;;;2.90;77.58;98799.56;4978428;28;20034;-71
2023/10/16 02:52:47;;;;;;;7.93;7.13;;;;;;;2.92;77.77;98810.88;4976680;28;20489;-71
2023/10/16 02:55:14;;;;;;;8.30;7.50;;;;;;;2.80;77.83;98798.00;4976091;28;20405;-71
2023/10/16 02:57:40;;;;;;;9.20;8.05;;;;;;;2.92;77.66;98822.31;4993176;28;20026;-72
2023/10/16 03:00:09;;;;;;;9.48;8.57;;;;;;;2.92;77.71;98818.84;4994214;28;20034;-71
2023/10/16 03:02:35;;;;;;;10.27;9.25;;;;;;;2.93;77.04;98812.50;4975615;28;20050;-72
2023/10/16 03:05:11;;;;;;;10.57;9.52;;;;;;;2.94;77.46;98819.50;4996062;28;20034;-72
2023/10/16 03:07:39;;;;;;;11.27;8.88;;;;;;;2.96;77.63;98814.81;4996866;28;20048;-72
2023/10/16 03:10:08;;;;;;;7.85;7.05;;;;;;;2.94;77.24;98806.19;4975672;28;20031;-71
2023/10/16 03:12:34;;;;;;;14.40;12.32;;;;;;;3.03;77.59;98818.41;4973817;28;20387;-71
2023/10/16 03:15:01;;;;;;;17.77;15.98;;;;;;;2.99;77.60;98811.81;4978636;28;20394;-71
2023/10/16 03:17:34;;;;;;;12.98;11.52;;;;;;;2.90;77.00;98812.84;4978505;28;20073;-70
2023/10/16 03:20:01;;;;;;;11.18;9.93;;;;;;;2.84;77.76;98818.91;4975862;28;20035;-74
2023/10/16 03:22:28;;;;;;;10.45;9.43;;;;;;;2.63;77.07;98809.78;4963222;28;20026;-74
2023/10/16 03:24:55;;;;;;;12.45;11.15;;;;;;;2.60;77.80;98820.78;4988928;28;20091;-73
2023/10/16 03:27:27;;;;;;;11.93;10.70;;;;;;;2.50;77.84;98806.88;5016017;28;20034;-74
2023/10/16 03:29:54;;;;;;;12.25;10.38;;;;;;;2.52;78.23;98798.75;5015718;28;20030;-72
2023/10/16 03:32:20;;;;;;;11.25;9.27;;;;;;;2.58;78.11;98813.97;4998589;28;20022;-74
2023/10/16 03:34:45;;;;;;;13.38;8.75;;;;;;;2.51;78.13;98807.72;5014829;28;20109;-73
2023/10/16 03:37:10;;;;;;;10.15;9.15;;;;;;;2.56;78.15;98823.97;4979828;28;20490;-71
2023/10/16 03:39:36;;;;;;;11.52;8.80;;;;;;;2.55;78.02;98820.47;4994592;28;20043;-73
2023/10/16 03:42:01;;;;;;;9.75;8.85;;;;;;;2.60;77.68;98818.13;4996151;28;20029;-73
2023/10/16 03:44:27;;;;;;;10.23;8.30;;;;;;;2.47;77.83;98806.44;4996401;28;20041;-73
2023/10/16 03:46:55;;;;;;;9.52;8.63;;;;;;;2.46;77.95;98794.97;4978711;28;20029;-74
2023/10/16 03:49:21;;;;;;;10.10;9.02;;;;;;;2.69;77.73;98822.34;4995750;28;20046;-73
2023/10/16 03:51:48;;;;;;;10.15;8.82;;;;;;;2.60;77.91;98802.16;4995771;28;20629;-74
2023/10/16 03:54:16;;;;;;;11.60;10.50;;;;;;;2.83;77.49;98827.88;4981075;28;20031;-72
2023/10/16 03:56:41;;;;;;;21.77;19.50;;;;;;;2.80;77.42;98816.59;4982351;28;20033;-73
2023/10/16 03:59:07;;;;;;;17.50;15.77;;;;;;;2.85;77.53;98815.25;4962197;28;20031;-73
2023/10/16 04:01:37;;;;;;;15.75;14.18;;;;;;;2.98;78.19;98816.28;4985172;28;20069;-73
2023/10/16 04:04:06;;;;;;;16.05;13.52;;;;;;;3.02;77.81;98817.56;4943568;28;20094;-74
2023/10/16 04:06:35;;;;;;;15.50;13.93;;;;;;;3.16;78.42;98821.25;4960521;28;20509;-72
2023/10/16 04:09:04;;;;;;;12.05;9.95;;;;;;;3.21;78.76;98826.88;4954489;28;20177;-72
2023/10/16 04:11:32;;;;;;;15.65;13.57;;;;;;;3.30;78.60;98825.75;4958568;28;20027;-70
2023/10/16 04:13:58;;;;;;;14.18;12.68;;;;;;;3.21;78.34;98801.09;5001687;28;20030;-71
2023/10/16 04:16:43;;;;;;;16.17;14.48;;;;;;;3.41;78.49;98834.13;5002684;28;20482;-70
2023/10/16 04:21:47;;;;;;;11.13;10.02;;;;;;;3.36;78.56;98825.06;4986521;28;20032;-71
2023/10/16 04:29:45;;;;;;;13.13;11.32;;;;;;;3.53;78.99;98837.16;5012990;28;20037;-73
2023/10/16 04:32:29;;;;;;;13.00;11.70;;;;;;;3.55;78.88;98829.81;5014114;28;20037;-72
2023/10/16 04:34:54;;;;;;;11.38;9.05;;;;;;;3.50;79.14;98821.56;5013427;28;20029;-70
2023/10/16 04:37:35;;;;;;;10.18;8.60;;;;;;;3.47;78.65;98824.59;4993950;28;20097;-70
2023/10/16 04:42:49;;;;;;;11.27;10.23;;;;;;;3.56;78.91;98818.16;4973275;28;20034;-72
2023/10/16 04:50:29;;;;;;;12.52;10.05;;;;;;;3.80;79.26;98812.53;4993389;28;20034;-73
2023/10/16 05:16:49;;;;;;;19.95;16.05;;;;;;;3.68;79.49;98786.53;4996439;28;20038;-74
2023/10/16 06:14:35;;;;;;;12.30;10.40;;;;;;;4.22;79.80;98802.97;4974740;28;20030;-73
2023/10/16 06:17:12;;;;;;;13.15;11.45;;;;;;;4.26;79.96;98820.22;4992085;28;20113;-73
2023/10/16 06:19:42;;;;;;;13.32;11.77;;;;;;;4.32;79.77;98822.16;4975751;28;20118;-73
2023/10/16 06:22:08;;;;;;;16.40;13.05;;;;;;;4.44;79.88;98818.75;4992158;28;20137;-71
2023/10/16 06:24:35;;;;;;;96.68;42.05;;;;;;;4.42;79.86;98811.97;4981500;28;20117;-70
2023/10/16 06:27:12;;;;;;;65.63;37.95;;;;;;;4.36;80.22;98791.41;5011695;28;20041;-73
2023/10/16 06:29:50;;;;;;;52.63;32.63;;;;;;;4.44;80.36;98804.59;4974278;28;20092;-71
2023/10/16 06:32:25;;;;;;;61.92;34.30;;;;;;;4.42;80.84;98806.63;4995602;28;20045;-73
2023/10/16 06:34:52;;;;;;;49.63;31.13;;;;;;;4.41;80.58;98807.66;4996308;28;20038;-73
2023/10/16 06:37:17;;;;;;;49.35;33.85;;;;;;;4.54;80.95;98821.94;4996238;28;20038;-73
2023/10/16 06:39:47;;;;;;;17.92;13.60;;;;;;;4.48;81.20;98821.91;4977279;28;20034;-72
2023/10/16 06:42:19;;;;;;;16.67;12.45;;;;;;;4.44;81.16;98815.25;5014031;28;20033;-73
2023/10/16 06:44:50;;;;;;;15.95;11.23;;;;;;;4.59;81.18;98818.72;5014263;28;20040;-72
2023/10/16 06:47:23;;;;;;;21.60;17.17;;;;;;;4.65;81.11;98820.59;4998317;28;20091;-73
2023/10/16 06:49:51;;;;;;;22.58;17.55;;;;;;;4.79;80.93;98838.38;4981792;28;20030;-73
2023/10/16 06:52:19;;;;;;;23.58;17.35;;;;;;;4.89;80.71;98828.22;5015332;28;20025;-72
2023/10/16 06:54:45;;;;;;;22.48;17.35;;;;;;;4.94;80.92;98827.63;4997596;28;20038;-73
2023/10/16 06:57:10;;;;;;;26.13;19.15;;;;;;;5.01;80.84;98824.00;5014167;28;20041;-71
2023/10/16 06:59:46;;;;;;;29.70;19.40;;;;;;;5.11;80.54;98832.47;4997370;28;20122;-73
2023/10/16 07:02:20;;;;;;;32.97;22.17;;;;;;;5.11;81.28;98829.00;5015422;28;20041;-72
2023/10/16 07:04:47;;;;;;;28.67;20.67;;;;;;;5.21;81.60;98829.47;5015015;28;20033;-71
2023/10/16 07:07:15;;;;;;;43.10;27.20;;;;;;;5.31;81.73;98838.81;5014948;28;20025;-73
2023/10/16 07:09:47;;;;;;;22.75;16.50;;;;;;;5.26;81.33;98835.88;5013204;28;20096;-72
2023/10/16 07:12:17;;;;;;;25.58;18.20;;;;;;;5.20;81.95;98839.34;4997893;28;20052;-72
2023/10/16 07:14:55;;;;;;;20.00;16.50;;;;;;;5.16;81.94;98837.25;4997356;28;20057;-72
2023/10/16 07:17:28;;;;;;;21.10;16.98;;;;;;;5.11;82.66;98845.81;4998900;28;20038;-72
2023/10/16 07:19:59;;;;;;;22.23;18.77;;;;;;;5.11;82.59;98837.81;4978066;28;20034;-73
2023/10/16 07:22:31;;;;;;;27.65;22.15;;;;;;;5.16;82.77;98848.75;4995229;28;20046;-73
2023/10/16 07:25:22;;;;;;;27.17;22.27;;;;;;;5.27;82.58;98834.88;4978112;28;20042;-72
2023/10/16 07:27:48;;;;;;;26.75;22.00;;;;;;;5.32;82.23;98832.44;4984423;28;20038;-73
2023/10/16 07:30:22;;;;;;;26.80;21.05;;;;;;;5.44;82.74;98841.56;5014210;28;20474;-73
2023/10/16 07:32:49;;;;;;;25.95;21.25;;;;;;;5.52;82.92;98838.75;5014524;28;20042;-72
2023/10/16 07:35:18;;;;;;;28.05;22.55;;;;;;;5.55;82.12;98846.34;4993883;28;20041;-72
2023/10/16 07:37:53;;;;;;;24.42;20.40;;;;;;;5.50;83.29;98840.78;4985746;28;20038;-73
2023/10/16 07:40:20;;;;;;;23.27;19.33;;;;;;;5.51;82.42;98837.06;4972467;28;20046;-69
2023/10/16 07:42:46;;;;;;;25.95;21.02;;;;;;;5.49;82.75;98820.44;4975303;28;20506;-72
2023/10/16 07:45:12;;;;;;;27.35;20.40;;;;;;;5.66;82.49;98844.16;4995268;28;20547;-71
2023/10/16 07:47:37;;;;;;;25.83;21.63;;;;;;;5.73;81.84;98839.66;4995672;28;20036;-72
2023/10/16 07:50:04;;;;;;;26.48;20.80;;;;;;;5.56;82.55;98821.28;4979290;28;20673;-71
2023/10/16 07:52:30;;;;;;;28.60;21.73;;;;;;;5.52;82.56;98822.72;4992734;28;20037;-73
2023/10/16 07:54:55;;;;;;;30.63;25.55;;;;;;;5.70;82.30;98822.19;4959037;28;20080;-73
2023/10/16 07:57:23;;;;;;;31.45;24.88;;;;;;;5.84;81.68;98826.59;4977227;28;20422;-73
2023/10/16 07:59:54;;;;;;;29.05;21.48;;;;;;;5.84;82.11;98831.06;4969574;28;20150;-73
2023/10/16 08:02:20;;;;;;;29.98;23.35;;;;;;;5.85;81.85;98828.25;4982581;28;20034;-74
2023/10/16 08:04:51;;;;;;;27.70;21.63;;;;;;;5.93;81.39;98817.38;4976910;28;20114;-73
2023/10/16 08:07:18;;;;;;;30.23;23.77;;;;;;;5.92;81.65;98813.06;4978139;28;20075;-72
2023/10/16 08:12:18;;;;;;;29.70;22.35;;;;;;;5.97;81.28;98823.16;4988109;28;20033;-71
2023/10/16 08:14:45;;;;;;;27.15;21.75;;;;;;;5.99;80.71;98813.94;5012771;28;20030;-74
2023/10/16 08:17:17;;;;;;;31.33;23.25;;;;;;;6.10;81.28;98831.22;4996473;28;20030;-71
2023/10/16 08:19:43;;;;;;;27.02;21.70;;;;;;;6.11;80.67;98833.69;4995780;28;20038;-72
2023/10/16 08:22:09;;;;;;;28.92;22.42;;;;;;;6.05;80.72;98812.28;4977106;28;20030;-71
2023/10/16 08:24:43;;;;;;;27.58;20.98;;;;;;;6.19;80.62;98830.03;4957459;28;20038;-71
2023/10/16 08:27:16;;;;;;;27.63;22.10;;;;;;;6.13;80.68;98825.47;4983353;28;20038;-72
2023/10/16 08:29:51;;;;;;;25.33;20.90;;;;;;;6.13;80.85;98820.97;4960858;28;20035;-72
2023/10/16 08:35:08;;;;;;;28.23;22.92;;;;;;;6.36;79.68;98836.66;4992156;28;20038;-72
2023/10/16 08:37:34;;;;;;;24.52;19.92;;;;;;;6.52;79.81;98835.47;4981277;28;20041;-73
2023/10/16 08:39:59;;;;;;;25.63;19.67;;;;;;;6.49;79.47;98814.47;4993865;28;20022;-71
2023/10/16 08:42:24;;;;;;;22.90;18.13;;;;;;;6.59;78.82;98831.78;4980780;28;20034;-71
2023/10/16 08:44:51;;;;;;;18.63;16.35;;;;;;;6.81;78.59;98851.97;4992982;28;20059;-71
2023/10/16 08:47:26;;;;;;;19.23;17.10;;;;;;;7.01;78.21;98838.59;4975400;28;20053;-74
2023/10/16 08:49:54;;;;;;;19.60;15.82;;;;;;;7.21;77.79;98844.78;4993380;28;20044;-74
2023/10/16 08:52:22;;;;;;;17.63;15.77;;;;;;;7.32;77.55;98832.63;4976592;28;20022;-73
2023/10/16 08:57:22;;;;;;;18.17;15.88;;;;;;;7.66;75.89;98851.09;4975488;28;20029;-73
2023/10/16 08:59:49;;;;;;;17.08;15.38;;;;;;;7.65;75.88;98836.06;4976001;28;20497;-72
2023/10/16 09:02:17;;;;;;;19.08;16.27;;;;;;;7.79;75.42;98848.41;4972796;28;20027;-72
2023/10/16 09:04:44;;;;;;;18.67;14.75;;;;;;;7.79;74.52;98845.72;4990594;28;20031;-73
2023/10/16 09:07:11;;;;;;;20.63;14.98;;;;;;;7.99;73.89;98862.56;4991881;28;20085;-72
2023/10/16 09:09:41;;;;;;;17.80;15.90;;;;;;;7.93;73.30;98841.97;4975677;28;20088;-72
2023/10/16 09:12:10;;;;;;;18.42;15.32;;;;;;;8.04;73.23;98853.88;4976011;28;20050;-73
2023/10/16 09:14:38;;;;;;;19.13;16.52;;;;;;;7.96;73.24;98854.13;4965155;28;20018;-72
2023/10/16 09:17:06;;;;;;;21.42;16.48;;;;;;;7.86;73.56;98849.22;4977323;28;20046;-73
2023/10/16 09:19:46;;;;;;;18.83;15.20;;;;;;;7.97;73.12;98848.56;5100348;27;20436;-71
2023/10/16 09:22:13;;;;;;;16.85;15.07;;;;;;;7.80;73.73;98831.28;5083200;28;20072;-71
2023/10/16 09:24:43;;;;;;;18.00;15.30;;;;;;;8.02;73.68;98856.78;5084445;28;20031;-71
2023/10/16 09:27:22;;;;;;;19.20;15.30;;;;;;;8.03;72.91;98857.59;5085371;28;20082;-71
2023/10/16 09:29:55;;;;;;;16.90;15.00;;;;;;;8.07;73.94;98854.31;5084856;28;20502;-71
2023/10/16 09:32:28;;;;;;;17.65;15.73;;;;;;;8.02;73.32;98850.59;5085516;28;20032;-71
2023/10/16 09:34:58;;;;;;;15.57;13.98;;;;;;;7.95;73.04;98834.53;5083648;28;20060;-71
2023/10/16 09:37:34;;;;;;;16.58;14.00;;;;;;;8.30;73.21;98843.91;5082302;28;20131;-71
2023/10/16 09:40:18;;;;;;;19.52;14.93;;;;;;;8.55;72.69;98840.47;5073132;28;20043;-71
2023/10/16 09:42:56;;;;;;;18.20;15.27;;;;;;;8.58;72.50;98848.09;5088101;28;20036;-71
2023/10/16 09:45:24;;;;;;;18.73;14.80;;;;;;;8.34;73.15;98847.81;5088802;28;20071;-73
2023/10/16 09:47:54;;;;;;;16.95;14.70;;;;;;;8.27;73.37;98849.69;5075992;28;20020;-71
2023/10/16 09:50:22;;;;;;;17.88;13.85;;;;;;;8.27;72.33;98844.34;5068499;28;20087;-72
2023/10/16 09:52:48;;;;;;;15.73;13.13;;;;;;;8.29;71.94;98841.44;5050955;28;20020;-71
2023/10/16 09:55:18;;;;;;;15.20;13.05;;;;;;;8.08;72.52;98828.28;5069040;28;20504;-72
2023/10/16 09:57:56;;;;;;;17.05;13.77;;;;;;;8.16;72.60;98831.56;5067998;28;20056;-72
2023/10/16 10:00:28;;;;;;;18.23;14.63;;;;;;;8.21;72.27;98815.63;5083792;28;20032;-71
2023/10/16 10:02:55;;;;;;;19.00;15.95;;;;;;;8.24;73.20;98825.94;5071865;28;20721;-71
2023/10/16 10:05:31;;;;;;;17.08;15.00;;;;;;;7.89;73.51;98821.97;5087047;28;20024;-71
2023/10/16 10:07:59;;;;;;;19.88;17.70;;;;;;;7.98;73.80;98836.78;5070859;28;20033;-71
2023/10/16 10:13:08;;;;;;;18.20;16.23;;;;;;;7.99;72.86;98832.25;5081907;28;20045;-71
2023/10/16 10:15:35;;;;;;;17.40;15.52;;;;;;;7.96;73.17;98840.72;5075377;28;20124;-72
2023/10/16 10:18:31;;;;;;;16.42;14.73;;;;;;;7.94;72.96;98838.25;5082832;28;20373;-72
2023/10/16 10:20:58;;;;;;;14.70;13.05;;;;;;;8.00;72.57;98826.69;5067161;28;20051;-71
2023/10/16 10:23:25;;;;;;;17.08;14.45;;;;;;;8.07;72.97;98830.16;5067676;28;20028;-72
2023/10/16 10:25:53;;;;;;;15.55;12.50;;;;;;;8.15;72.55;98827.22;5066355;28;20166;-72
2023/10/16 10:28:28;;;;;;;13.23;11.90;;;;;;;8.21;72.00;98823.66;5066186;28;20028;-71
2023/10/16 10:30:55;;;;;;;;;;;;;;;8.04;73.08;98825.22;5062948;28;20098;-72
2023/10/16 10:33:57;;;;;;;13.90;10.73;;;;;;;8.41;71.76;98822.78;5056600;28;19912;-71
2023/10/16 10:36:39;;;;;;;11.50;10.32;;;;;;;8.45;72.06;98824.03;5073027;28;20459;-71
2023/10/16 10:39:24;;;;;;;11.68;10.40;;;;;;;8.64;70.80;98823.06;5052968;28;20485;-71
2023/10/16 10:41:51;;;;;;;11.35;9.82;;;;;;;8.66;70.73;98815.63;5067126;28;20045;-72
2023/10/16 10:44:19;;;;;;;10.48;9.27;;;;;;;8.83;69.78;98816.72;5052061;28;20028;-72
2023/10/16 10:46:49;;;;;;;11.65;9.48;;;;;;;8.81;70.29;98808.06;5057607;28;20037;-72
2023/10/16 10:49:17;;;;;;;9.40;8.40;;;;;;;8.78;69.19;98782.47;5054591;28;20040;-72
2023/10/16 10:51:46;;;;;;;10.15;8.10;;;;;;;9.09;68.75;98797.72;5052732;28;20532;-71
2023/10/16 10:54:14;;;;;;;9.57;7.65;;;;;;;9.19;68.85;98806.13;5068866;28;20029;-72
2023/10/16 10:56:41;;;;;;;8.73;7.82;;;;;;;9.33;68.49;98799.56;5069298;28;20439;-72
2023/10/16 10:59:10;;;;;;;11.50;7.47;;;;;;;9.10;67.97;98785.94;5052223;28;20029;-71
2023/10/16 11:01:44;;;;;;;11.48;7.82;;;;;;;9.19;67.82;98784.63;5052572;28;20041;-72
2023/10/16 11:04:15;;;;;;;7.88;7.07;;;;;;;9.39;67.23;98790.63;5068326;28;20614;-72
2023/10/16 11:06:52;;;;;;;9.68;6.25;;;;;;;9.58;66.92;98778.00;5036469;28;20047;-71
2023/10/16 11:09:21;;;;;;;7.03;6.32;;;;;;;9.81;66.32;98767.38;5053207;28;20039;-71
2023/10/16 11:11:47;;;;;;;9.00;6.10;;;;;;;10.02;65.71;98769.63;5053781;28;20025;-72
2023/10/16 11:14:13;;;;;;;8.35;4.88;;;;;;;9.87;65.31;98754.91;5052388;28;20076;-71
2023/10/16 11:16:48;;;;;;;8.23;3.97;;;;;;;9.88;64.06;98764.63;5056399;28;20020;-71
2023/10/16 11:19:23;;;;;;;4.53;3.88;;;;;;;9.91;63.78;98753.41;5071679;28;20037;-72
2023/10/16 11:21:48;;;;;;;7.25;4.03;;;;;;;9.93;63.57;98740.56;5045437;28;20049;-71
2023/10/16 11:24:14;;;;;;;7.18;4.05;;;;;;;10.04;63.23;98745.16;5070476;28;20086;-72
2023/10/16 11:26:41;;;;;;;8.25;3.65;;;;;;;10.05;62.31;98736.06;5075375;28;20404;-71
2023/10/16 11:29:12;;;;;;;7.95;4.53;;;;;;;10.19;62.53;98748.31;5066515;28;20088;-72
2023/10/16 11:31:41;;;;;;;4.85;2.80;;;;;;;10.36;61.47;98738.53;5067481;28;20501;-71
2023/10/16 11:34:11;;;;;;;5.78;3.03;;;;;;;10.54;60.66;98743.84;5070002;28;20036;-71
2023/10/16 11:36:38;;;;;;;6.60;3.75;;;;;;;10.38;61.25;98742.63;5070977;28;20511;-72
2023/10/16 11:39:06;;;;;;;5.05;3.45;;;;;;;10.70;59.99;98745.88;5046981;28;20013;-72
2023/10/16 11:41:37;;;;;;;4.60;2.63;;;;;;;12.04;57.34;98726.78;5056759;28;20040;-72
2023/10/16 11:44:32;;;;;;;3.85;2.88;;;;;;;13.75;53.81;98726.03;5039565;28;20167;-72
2023/10/16 11:46:52;;;;;;;5.20;2.78;;;;;;;13.83;52.12;98709.38;5065169;28;20052;-72
2023/10/16 11:51:51;;;;;;;5.75;3.22;;;;;;;13.53;52.03;98734.16;5066448;28;20033;-71
2023/10/16 11:54:23;;;;;;;7.05;2.90;;;;;;;15.08;48.80;98726.06;5052828;28;20032;-71
2023/10/16 11:56:53;;;;;;;4.82;2.88;;;;;;;16.00;46.93;98709.22;5035118;28;20029;-72
2023/10/16 11:59:19;;;;;;;3.72;2.50;;;;;;;17.26;44.20;98701.19;5035019;28;20060;-72
2023/10/16 12:01:46;;;;;;;5.32;2.50;;;;;;;18.36;42.63;98688.25;5071238;28;20484;-73
2023/10/16 12:04:12;;;;;;;7.65;2.38;;;;;;;19.08;41.28;98703.81;5059347;28;20389;-72
2023/10/16 12:06:38;;;;;;;4.30;1.77;;;;;;;18.57;40.92;98695.22;5065833;28;20051;-72
2023/10/16 12:09:05;;;;;;;3.30;1.60;;;;;;;17.48;41.40;98698.16;5053504;28;20085;-72
2023/10/16 12:11:30;;;;;;;6.38;1.98;;;;;;;16.74;42.50;98692.50;5049159;28;20025;-72
2023/10/16 12:13:56;;;;;;;4.78;2.22;;;;;;;15.97;43.84;98693.44;5051085;28;20463;-72
2023/10/16 12:16:24;;;;;;;7.22;2.30;;;;;;;15.34;45.10;98704.50;5063806;28;20487;-71
2023/10/16 12:18:51;;;;;;;4.07;2.20;;;;;;;14.82;45.37;98693.59;5073656;28;20036;-72
2023/10/16 12:21:17;;;;;;;6.88;2.53;;;;;;;14.32;46.32;98686.66;5053967;28;20029;-72
2023/10/16 12:23:43;;;;;;;7.65;1.63;;;;;;;14.00;46.76;98693.03;5056943;28;20511;-72
2023/10/16 12:26:09;;;;;;;4.18;1.90;;;;;;;13.67;47.16;98684.00;5050847;28;20032;-73
2023/10/16 12:28:34;;;;;;;3.53;1.98;;;;;;;13.45;47.76;98680.47;5054052;28;20041;-72
2023/10/16 12:31:02;;;;;;;6.93;2.80;;;;;;;12.96;48.12;98682.19;5070744;28;20029;-72
2023/10/16 12:33:28;;;;;;;5.82;2.40;;;;;;;12.39;49.62;98681.50;5069769;28;20064;-70
2023/10/16 12:35:57;;;;;;;6.93;2.65;;;;;;;12.34;49.74;98677.94;5059238;28;20056;-70
2023/10/16 12:38:25;;;;;;;5.93;2.75;;;;;;;12.05;51.09;98658.22;5070522;28;20097;-71
2023/10/16 12:40:53;;;;;;;7.20;2.70;;;;;;;12.04;51.61;98678.19;5071534;28;20029;-70
2023/10/16 12:43:25;;;;;;;4.63;2.70;;;;;;;12.03;51.76;98673.84;5070531;28;20403;-71
2023/10/16 12:45:51;;;;;;;4.97;2.72;;;;;;;12.87;51.26;98669.31;5070738;28;20086;-70
2023/10/16 12:48:17;;;;;;;4.35;2.70;;;;;;;14.93;47.83;98651.91;5070510;28;20016;-71
2023/10/16 12:50:47;;;;;;;3.90;2.42;;;;;;;16.70;45.06;98647.91;5070064;28;20522;-71
2023/10/16 12:53:12;;;;;;;4.65;2.35;;;;;;;18.29;41.77;98635.94;5070237;28;20051;-71
2023/10/16 12:55:40;;;;;;;4.93;2.15;;;;;;;19.76;39.20;98641.63;5070429;28;20496;-71
2023/10/16 12:58:10;;;;;;;4.30;2.50;;;;;;;20.63;37.17;98640.91;5071394;28;20025;-70
2023/10/16 13:00:39;;;;;;;4.22;2.63;;;;;;;19.91;37.32;98644.97;5070022;28;20168;-71
2023/10/16 13:03:13;;;;;;;3.88;2.55;;;;;;;20.11;37.02;98648.53;5070379;28;20025;-71
2023/10/16 13:05:40;;;;;;;5.65;2.90;;;;;;;21.79;34.86;98618.78;5071670;28;20488;-71
2023/10/16 13:08:07;;;;;;;5.15;2.67;;;;;;;23.27;33.42;98627.56;5070206;28;20039;-70
2023/10/16 13:10:33;;;;;;;4.70;2.90;;;;;;;24.05;32.23;98628.66;5070046;28;20395;-71
2023/10/16 13:12:59;;;;;;;5.18;2.88;;;;;;;24.04;31.47;98629.78;5070253;28;20024;-71
2023/10/16 13:15:25;;;;;;;6.40;3.35;;;;;;;24.23;30.53;98630.31;5059921;28;20041;-73
2023/10/16 13:17:52;;;;;;;4.35;2.78;;;;;;;24.13;30.90;98614.13;5050959;28;20024;-73
2023/10/16 13:20:18;;;;;;;5.35;2.70;;;;;;;24.78;30.09;98622.25;5069570;28;20048;-73
2023/10/16 13:22:44;;;;;;;9.43;2.58;;;;;;;25.05;29.82;98610.00;5069960;28;20108;-73
2023/10/16 13:25:12;;;;;;;4.55;2.80;;;;;;;23.19;32.25;98625.59;5070091;28;20047;-73
2023/10/16 13:27:40;;;;;;;5.55;2.75;;;;;;;20.73;35.21;98639.13;5069820;28;20100;-73
2023/10/16 13:30:07;;;;;;;5.80;2.65;;;;;;;18.77;37.80;98640.47;5070874;28;20032;-73
2023/10/16 13:32:32;;;;;;;7.35;3.10;;;;;;;18.15;38.77;98626.75;5070990;28;20206;-71